sensor_id;sensor_type;location;lat;lon;timestamp;P1;durP1;ratioP1;P2;durP2;ratioP2
62123;SDS011;48110;47.532;19.078;2023-06-10T00:01:48;8.57;;;7.07;;
62123;SDS011;48110;47.532;19.078;2023-06-10T00:04:53;8.52;;;6.90;;
62123;SDS011;48110;47.532;19.078;2023-06-10T00:08:00;9.15;;;6.47;;
62123;SDS011;48110;47.532;19.078;2023-06-10T00:11:11;10.02;;;6.70;;
62123;SDS011;48110;47.532;19.078;2023-06-10T00:14:16;10.43;;;6.90;;
62123;SDS011;48110;47.532;19.078;2023-06-10T00:17:21;11.55;;;6.60;;
62123;SDS011;48110;47.532;19.078;2023-06-10T00:20:28;9.30;;;6.55;;
62123;SDS011;48110;47.532;19.078;2023-06-10T00:23:32;7.50;;;6.25;;
62123;SDS011;48110;47.532;19.078;2023-06-10T00:26:41;9.13;;;6.30;;
62123;SDS011;48110;47.532;19.078;2023-06-10T00:29:47;10.77;;;6.68;;
62123;SDS011;48110;47.532;19.078;2023-06-10T00:32:51;7.80;;;7.00;;
62123;SDS011;48110;47.532;19.078;2023-06-10T00:35:57;17.00;;;7.00;;
62123;SDS011;48110;47.532;19.078;2023-06-10T00:39:03;8.48;;;6.40;;
62123;SDS011;48110;47.532;19.078;2023-06-10T00:42:08;7.10;;;6.40;;
62123;SDS011;48110;47.532;19.078;2023-06-10T00:45:15;12.45;;;6.97;;
62123;SDS011;48110;47.532;19.078;2023-06-10T00:48:20;12.35;;;6.87;;
62123;SDS011;48110;47.532;19.078;2023-06-10T00:51:24;11.10;;;7.05;;
62123;SDS011;48110;47.532;19.078;2023-06-10T00:54:31;10.27;;;6.87;;
62123;SDS011;48110;47.532;19.078;2023-06-10T00:57:37;10.98;;;6.72;;
62123;SDS011;48110;47.532;19.078;2023-06-10T01:00:42;13.30;;;7.22;;
62123;SDS011;48110;47.532;19.078;2023-06-10T01:03:49;12.77;;;7.05;;
62123;SDS011;48110;47.532;19.078;2023-06-10T01:13:16;9.68;;;6.97;;
62123;SDS011;48110;47.532;19.078;2023-06-10T01:16:22;9.05;;;6.35;;
62123;SDS011;48110;47.532;19.078;2023-06-10T01:19:27;12.48;;;7.07;;
62123;SDS011;48110;47.532;19.078;2023-06-10T01:22:31;10.90;;;6.97;;
62123;SDS011;48110;47.532;19.078;2023-06-10T01:25:41;17.52;;;7.50;;
62123;SDS011;48110;47.532;19.078;2023-06-10T01:28:51;11.93;;;6.90;;
62123;SDS011;48110;47.532;19.078;2023-06-10T01:32:06;8.80;;;7.20;;
62123;SDS011;48110;47.532;19.078;2023-06-10T01:35:17;16.10;;;6.60;;
62123;SDS011;48110;47.532;19.078;2023-06-10T01:38:23;12.52;;;6.78;;
62123;SDS011;48110;47.532;19.078;2023-06-10T01:41:31;11.77;;;7.03;;
62123;SDS011;48110;47.532;19.078;2023-06-10T01:44:37;9.45;;;6.53;;
62123;SDS011;48110;47.532;19.078;2023-06-10T01:47:43;10.40;;;6.50;;
62123;SDS011;48110;47.532;19.078;2023-06-10T01:50:48;11.63;;;7.15;;
62123;SDS011;48110;47.532;19.078;2023-06-10T01:53:54;12.02;;;7.35;;
62123;SDS011;48110;47.532;19.078;2023-06-10T01:56:58;9.25;;;6.97;;
62123;SDS011;48110;47.532;19.078;2023-06-10T02:00:04;10.40;;;7.25;;
62123;SDS011;48110;47.532;19.078;2023-06-10T02:03:16;10.35;;;7.18;;
62123;SDS011;48110;47.532;19.078;2023-06-10T02:06:22;12.37;;;6.43;;
62123;SDS011;48110;47.532;19.078;2023-06-10T02:09:26;13.77;;;6.10;;
62123;SDS011;48110;47.532;19.078;2023-06-10T02:12:33;10.90;;;6.40;;
62123;SDS011;48110;47.532;19.078;2023-06-10T02:15:38;8.95;;;6.22;;
62123;SDS011;48110;47.532;19.078;2023-06-10T02:18:43;13.57;;;7.18;;
62123;SDS011;48110;47.532;19.078;2023-06-10T02:21:49;11.73;;;7.50;;
62123;SDS011;48110;47.532;19.078;2023-06-10T02:24:54;11.02;;;7.50;;
62123;SDS011;48110;47.532;19.078;2023-06-10T02:27:59;11.40;;;7.30;;
62123;SDS011;48110;47.532;19.078;2023-06-10T02:31:04;9.18;;;7.43;;
62123;SDS011;48110;47.532;19.078;2023-06-10T02:34:09;12.65;;;7.53;;
62123;SDS011;48110;47.532;19.078;2023-06-10T02:37:14;10.07;;;7.62;;
62123;SDS011;48110;47.532;19.078;2023-06-10T02:40:19;11.68;;;7.10;;
62123;SDS011;48110;47.532;19.078;2023-06-10T02:43:25;9.55;;;7.72;;
62123;SDS011;48110;47.532;19.078;2023-06-10T02:46:29;9.57;;;7.18;;
62123;SDS011;48110;47.532;19.078;2023-06-10T02:49:35;10.23;;;7.60;;
62123;SDS011;48110;47.532;19.078;2023-06-10T02:52:41;9.75;;;7.37;;
62123;SDS011;48110;47.532;19.078;2023-06-10T02:55:46;9.13;;;7.57;;
62123;SDS011;48110;47.532;19.078;2023-06-10T02:58:51;10.45;;;7.20;;
62123;SDS011;48110;47.532;19.078;2023-06-10T03:01:58;11.80;;;6.82;;
62123;SDS011;48110;47.532;19.078;2023-06-10T03:05:06;10.75;;;6.70;;
62123;SDS011;48110;47.532;19.078;2023-06-10T03:08:15;8.20;;;6.30;;
62123;SDS011;48110;47.532;19.078;2023-06-10T03:11:20;10.20;;;6.60;;
62123;SDS011;48110;47.532;19.078;2023-06-10T03:14:26;9.27;;;7.20;;
62123;SDS011;48110;47.532;19.078;2023-06-10T03:17:30;10.20;;;6.35;;
62123;SDS011;48110;47.532;19.078;2023-06-10T03:20:37;7.10;;;6.25;;
62123;SDS011;48110;47.532;19.078;2023-06-10T03:23:44;11.85;;;6.82;;
62123;SDS011;48110;47.532;19.078;2023-06-10T03:26:49;8.65;;;6.45;;
62123;SDS011;48110;47.532;19.078;2023-06-10T03:29:53;11.10;;;6.68;;
62123;SDS011;48110;47.532;19.078;2023-06-10T03:33:00;9.05;;;6.40;;
62123;SDS011;48110;47.532;19.078;2023-06-10T03:36:05;12.23;;;6.50;;
62123;SDS011;48110;47.532;19.078;2023-06-10T03:39:11;10.50;;;6.32;;
62123;SDS011;48110;47.532;19.078;2023-06-10T03:42:16;9.57;;;6.07;;
62123;SDS011;48110;47.532;19.078;2023-06-10T03:45:22;9.75;;;5.95;;
62123;SDS011;48110;47.532;19.078;2023-06-10T03:48:26;14.05;;;6.20;;
62123;SDS011;48110;47.532;19.078;2023-06-10T03:51:31;6.78;;;6.15;;
62123;SDS011;48110;47.532;19.078;2023-06-10T03:54:36;8.93;;;5.90;;
62123;SDS011;48110;47.532;19.078;2023-06-10T03:57:41;8.52;;;6.20;;
62123;SDS011;48110;47.532;19.078;2023-06-10T04:00:46;8.88;;;5.97;;
62123;SDS011;48110;47.532;19.078;2023-06-10T04:03:51;8.63;;;6.30;;
62123;SDS011;48110;47.532;19.078;2023-06-10T04:06:58;10.65;;;6.30;;
62123;SDS011;48110;47.532;19.078;2023-06-10T04:10:03;6.32;;;5.68;;
62123;SDS011;48110;47.532;19.078;2023-06-10T04:13:09;11.63;;;5.80;;
62123;SDS011;48110;47.532;19.078;2023-06-10T04:16:15;7.05;;;5.65;;
62123;SDS011;48110;47.532;19.078;2023-06-10T04:19:22;7.10;;;5.47;;
62123;SDS011;48110;47.532;19.078;2023-06-10T04:22:27;7.35;;;5.50;;
62123;SDS011;48110;47.532;19.078;2023-06-10T04:25:33;9.32;;;5.80;;
62123;SDS011;48110;47.532;19.078;2023-06-10T04:28:38;9.73;;;5.78;;
62123;SDS011;48110;47.532;19.078;2023-06-10T04:31:44;6.90;;;5.53;;
62123;SDS011;48110;47.532;19.078;2023-06-10T04:34:50;10.38;;;5.47;;
62123;SDS011;48110;47.532;19.078;2023-06-10T04:37:57;10.57;;;6.15;;
62123;SDS011;48110;47.532;19.078;2023-06-10T04:41:01;8.75;;;5.68;;
62123;SDS011;48110;47.532;19.078;2023-06-10T04:44:07;14.90;;;6.22;;
62123;SDS011;48110;47.532;19.078;2023-06-10T04:47:12;12.50;;;7.22;;
62123;SDS011;48110;47.532;19.078;2023-06-10T04:50:17;10.77;;;8.27;;
62123;SDS011;48110;47.532;19.078;2023-06-10T04:53:22;10.30;;;7.03;;
62123;SDS011;48110;47.532;19.078;2023-06-10T04:56:26;12.50;;;6.10;;
62123;SDS011;48110;47.532;19.078;2023-06-10T04:59:32;7.12;;;5.35;;
62123;SDS011;48110;47.532;19.078;2023-06-10T05:02:41;7.05;;;5.30;;
62123;SDS011;48110;47.532;19.078;2023-06-10T05:05:45;7.12;;;5.55;;
62123;SDS011;48110;47.532;19.078;2023-06-10T05:08:50;5.50;;;4.97;;
62123;SDS011;48110;47.532;19.078;2023-06-10T05:11:54;7.93;;;4.40;;
62123;SDS011;48110;47.532;19.078;2023-06-10T05:15:00;7.03;;;4.62;;
62123;SDS011;48110;47.532;19.078;2023-06-10T05:18:05;7.10;;;4.45;;
62123;SDS011;48110;47.532;19.078;2023-06-10T05:21:09;6.05;;;4.20;;
62123;SDS011;48110;47.532;19.078;2023-06-10T05:24:14;5.75;;;4.43;;
62123;SDS011;48110;47.532;19.078;2023-06-10T05:27:19;7.82;;;4.10;;
62123;SDS011;48110;47.532;19.078;2023-06-10T05:30:23;7.47;;;3.92;;
62123;SDS011;48110;47.532;19.078;2023-06-10T05:33:29;12.15;;;4.45;;
62123;SDS011;48110;47.532;19.078;2023-06-10T05:36:34;6.22;;;3.92;;
62123;SDS011;48110;47.532;19.078;2023-06-10T05:39:39;4.68;;;3.95;;
62123;SDS011;48110;47.532;19.078;2023-06-10T05:42:44;7.57;;;4.45;;
62123;SDS011;48110;47.532;19.078;2023-06-10T05:45:49;5.70;;;4.15;;
62123;SDS011;48110;47.532;19.078;2023-06-10T05:48:53;5.65;;;4.12;;
62123;SDS011;48110;47.532;19.078;2023-06-10T05:51:59;6.75;;;3.92;;
62123;SDS011;48110;47.532;19.078;2023-06-10T05:55:04;7.50;;;3.53;;
62123;SDS011;48110;47.532;19.078;2023-06-10T05:58:11;7.18;;;3.75;;
62123;SDS011;48110;47.532;19.078;2023-06-10T06:01:16;8.35;;;3.67;;
62123;SDS011;48110;47.532;19.078;2023-06-10T06:04:22;8.15;;;3.90;;
62123;SDS011;48110;47.532;19.078;2023-06-10T06:07:25;5.60;;;3.62;;
62123;SDS011;48110;47.532;19.078;2023-06-10T06:10:30;4.18;;;3.78;;
62123;SDS011;48110;47.532;19.078;2023-06-10T06:13:33;4.32;;;3.83;;
62123;SDS011;48110;47.532;19.078;2023-06-10T06:16:39;5.90;;;4.03;;
62123;SDS011;48110;47.532;19.078;2023-06-10T06:19:43;4.60;;;4.00;;
62123;SDS011;48110;47.532;19.078;2023-06-10T06:22:49;7.57;;;4.32;;
62123;SDS011;48110;47.532;19.078;2023-06-10T06:25:53;6.12;;;4.20;;
62123;SDS011;48110;47.532;19.078;2023-06-10T06:28:58;7.95;;;4.70;;
62123;SDS011;48110;47.532;19.078;2023-06-10T06:32:04;6.70;;;4.78;;
62123;SDS011;48110;47.532;19.078;2023-06-10T06:35:09;6.43;;;4.93;;
62123;SDS011;48110;47.532;19.078;2023-06-10T06:38:15;6.75;;;4.72;;
62123;SDS011;48110;47.532;19.078;2023-06-10T06:41:19;7.53;;;4.60;;
62123;SDS011;48110;47.532;19.078;2023-06-10T06:44:25;11.70;;;4.35;;
62123;SDS011;48110;47.532;19.078;2023-06-10T06:47:30;5.90;;;4.65;;
62123;SDS011;48110;47.532;19.078;2023-06-10T06:50:35;5.50;;;4.65;;
62123;SDS011;48110;47.532;19.078;2023-06-10T06:53:40;7.45;;;4.45;;
62123;SDS011;48110;47.532;19.078;2023-06-10T06:56:51;8.75;;;4.53;;
62123;SDS011;48110;47.532;19.078;2023-06-10T06:59:55;6.60;;;4.50;;
62123;SDS011;48110;47.532;19.078;2023-06-10T07:03:00;6.85;;;4.53;;
62123;SDS011;48110;47.532;19.078;2023-06-10T07:06:05;6.57;;;5.25;;
62123;SDS011;48110;47.532;19.078;2023-06-10T07:09:09;6.35;;;4.43;;
62123;SDS011;48110;47.532;19.078;2023-06-10T07:12:15;5.78;;;4.80;;
62123;SDS011;48110;47.532;19.078;2023-06-10T07:15:19;6.30;;;4.35;;
62123;SDS011;48110;47.532;19.078;2023-06-10T07:18:24;10.05;;;4.60;;
62123;SDS011;48110;47.532;19.078;2023-06-10T07:21:29;5.15;;;4.65;;
62123;SDS011;48110;47.532;19.078;2023-06-10T07:24:34;7.45;;;4.40;;
62123;SDS011;48110;47.532;19.078;2023-06-10T07:27:38;9.40;;;3.90;;
62123;SDS011;48110;47.532;19.078;2023-06-10T07:30:43;9.90;;;3.72;;
62123;SDS011;48110;47.532;19.078;2023-06-10T07:33:47;4.90;;;3.45;;
62123;SDS011;48110;47.532;19.078;2023-06-10T07:36:52;4.00;;;3.60;;
62123;SDS011;48110;47.532;19.078;2023-06-10T07:39:56;5.18;;;3.20;;
62123;SDS011;48110;47.532;19.078;2023-06-10T07:43:02;4.72;;;3.83;;
62123;SDS011;48110;47.532;19.078;2023-06-10T07:46:06;6.47;;;4.20;;
62123;SDS011;48110;47.532;19.078;2023-06-10T07:49:12;5.65;;;4.15;;
62123;SDS011;48110;47.532;19.078;2023-06-10T07:52:17;4.40;;;4.00;;
62123;SDS011;48110;47.532;19.078;2023-06-10T07:55:22;6.43;;;4.47;;
62123;SDS011;48110;47.532;19.078;2023-06-10T07:58:26;8.15;;;4.00;;
62123;SDS011;48110;47.532;19.078;2023-06-10T08:01:32;8.02;;;4.10;;
62123;SDS011;48110;47.532;19.078;2023-06-10T08:04:37;6.68;;;4.50;;
62123;SDS011;48110;47.532;19.078;2023-06-10T08:07:42;7.03;;;4.03;;
62123;SDS011;48110;47.532;19.078;2023-06-10T08:10:47;7.78;;;4.75;;
62123;SDS011;48110;47.532;19.078;2023-06-10T08:13:53;7.90;;;4.40;;
62123;SDS011;48110;47.532;19.078;2023-06-10T08:16:57;9.77;;;4.45;;
62123;SDS011;48110;47.532;19.078;2023-06-10T08:20:02;4.95;;;4.45;;
62123;SDS011;48110;47.532;19.078;2023-06-10T08:23:08;5.82;;;4.90;;
62123;SDS011;48110;47.532;19.078;2023-06-10T08:26:12;5.85;;;4.90;;
62123;SDS011;48110;47.532;19.078;2023-06-10T08:29:17;8.15;;;5.10;;
62123;SDS011;48110;47.532;19.078;2023-06-10T08:32:23;5.60;;;4.57;;
62123;SDS011;48110;47.532;19.078;2023-06-10T08:35:28;6.25;;;4.60;;
62123;SDS011;48110;47.532;19.078;2023-06-10T08:38:32;9.90;;;4.68;;
62123;SDS011;48110;47.532;19.078;2023-06-10T08:41:40;6.85;;;4.20;;
62123;SDS011;48110;47.532;19.078;2023-06-10T08:44:48;7.32;;;4.70;;
62123;SDS011;48110;47.532;19.078;2023-06-10T08:47:58;4.72;;;4.28;;
62123;SDS011;48110;47.532;19.078;2023-06-10T08:51:04;5.32;;;3.97;;
62123;SDS011;48110;47.532;19.078;2023-06-10T08:54:11;5.35;;;4.20;;
62123;SDS011;48110;47.532;19.078;2023-06-10T08:57:25;6.78;;;4.50;;
62123;SDS011;48110;47.532;19.078;2023-06-10T09:00:31;6.32;;;4.80;;
62123;SDS011;48110;47.532;19.078;2023-06-10T09:03:38;6.70;;;4.45;;
62123;SDS011;48110;47.532;19.078;2023-06-10T09:06:44;6.10;;;4.85;;
62123;SDS011;48110;47.532;19.078;2023-06-10T09:09:50;5.10;;;4.60;;
62123;SDS011;48110;47.532;19.078;2023-06-10T09:12:58;6.43;;;4.90;;
62123;SDS011;48110;47.532;19.078;2023-06-10T09:16:03;6.10;;;4.70;;
62123;SDS011;48110;47.532;19.078;2023-06-10T09:19:08;5.35;;;4.85;;
62123;SDS011;48110;47.532;19.078;2023-06-10T09:22:16;6.62;;;5.40;;
62123;SDS011;48110;47.532;19.078;2023-06-10T09:25:28;5.75;;;5.18;;
62123;SDS011;48110;47.532;19.078;2023-06-10T09:28:42;8.05;;;4.75;;
62123;SDS011;48110;47.532;19.078;2023-06-10T09:31:56;6.07;;;5.47;;
62123;SDS011;48110;47.532;19.078;2023-06-10T09:35:03;10.43;;;5.65;;
62123;SDS011;48110;47.532;19.078;2023-06-10T09:38:19;8.20;;;6.20;;
62123;SDS011;48110;47.532;19.078;2023-06-10T09:41:31;9.48;;;7.10;;
62123;SDS011;48110;47.532;19.078;2023-06-10T09:44:38;7.82;;;7.00;;
62123;SDS011;48110;47.532;19.078;2023-06-10T09:47:45;7.57;;;6.87;;
62123;SDS011;48110;47.532;19.078;2023-06-10T09:50:55;11.15;;;7.43;;
62123;SDS011;48110;47.532;19.078;2023-06-10T09:54:02;8.30;;;7.50;;
62123;SDS011;48110;47.532;19.078;2023-06-10T09:57:07;9.27;;;8.25;;
62123;SDS011;48110;47.532;19.078;2023-06-10T10:00:15;10.50;;;9.50;;
62123;SDS011;48110;47.532;19.078;2023-06-10T10:03:23;12.63;;;10.32;;
62123;SDS011;48110;47.532;19.078;2023-06-10T10:06:27;10.32;;;9.32;;
62123;SDS011;48110;47.532;19.078;2023-06-10T10:09:35;10.60;;;9.65;;
62123;SDS011;48110;47.532;19.078;2023-06-10T10:12:41;10.40;;;9.15;;
62123;SDS011;48110;47.532;19.078;2023-06-10T10:15:46;15.93;;;10.20;;
62123;SDS011;48110;47.532;19.078;2023-06-10T10:18:53;11.02;;;9.90;;
62123;SDS011;48110;47.532;19.078;2023-06-10T10:22:10;10.80;;;9.47;;
62123;SDS011;48110;47.532;19.078;2023-06-10T10:25:29;8.57;;;7.68;;
62123;SDS011;48110;47.532;19.078;2023-06-10T10:28:44;9.18;;;8.27;;
62123;SDS011;48110;47.532;19.078;2023-06-10T10:31:52;10.15;;;8.27;;
62123;SDS011;48110;47.532;19.078;2023-06-10T10:35:12;9.70;;;8.30;;
62123;SDS011;48110;47.532;19.078;2023-06-10T10:38:21;7.32;;;6.55;;
62123;SDS011;48110;47.532;19.078;2023-06-10T10:41:26;6.43;;;5.80;;
62123;SDS011;48110;47.532;19.078;2023-06-10T10:44:32;6.18;;;5.57;;
62123;SDS011;48110;47.532;19.078;2023-06-10T10:47:41;5.55;;;5.03;;
62123;SDS011;48110;47.532;19.078;2023-06-10T10:50:55;6.33;;;5.73;;
62123;SDS011;48110;47.532;19.078;2023-06-10T10:54:10;6.50;;;4.87;;
62123;SDS011;48110;47.532;19.078;2023-06-10T10:57:20;9.38;;;5.53;;
62123;SDS011;48110;47.532;19.078;2023-06-10T11:03:32;6.95;;;4.90;;
62123;SDS011;48110;47.532;19.078;2023-06-10T11:06:53;4.70;;;4.22;;
62123;SDS011;48110;47.532;19.078;2023-06-10T11:10:02;6.20;;;4.85;;
62123;SDS011;48110;47.532;19.078;2023-06-10T11:13:18;5.80;;;4.78;;
62123;SDS011;48110;47.532;19.078;2023-06-10T11:16:26;6.20;;;5.60;;
62123;SDS011;48110;47.532;19.078;2023-06-10T11:19:36;8.45;;;6.00;;
62123;SDS011;48110;47.532;19.078;2023-06-10T11:22:58;7.03;;;6.40;;
62123;SDS011;48110;47.532;19.078;2023-06-10T11:26:12;7.62;;;6.95;;
62123;SDS011;48110;47.532;19.078;2023-06-10T11:29:18;10.55;;;6.93;;
62123;SDS011;48110;47.532;19.078;2023-06-10T11:32:24;8.77;;;7.87;;
62123;SDS011;48110;47.532;19.078;2023-06-10T11:35:37;10.60;;;8.25;;
62123;SDS011;48110;47.532;19.078;2023-06-10T11:38:43;8.02;;;7.22;;
62123;SDS011;48110;47.532;19.078;2023-06-10T11:41:51;10.00;;;6.57;;
62123;SDS011;48110;47.532;19.078;2023-06-10T11:44:56;8.65;;;6.15;;
62123;SDS011;48110;47.532;19.078;2023-06-10T11:48:02;6.78;;;5.30;;
62123;SDS011;48110;47.532;19.078;2023-06-10T11:51:07;5.90;;;5.03;;
62123;SDS011;48110;47.532;19.078;2023-06-10T11:54:14;5.55;;;4.93;;
62123;SDS011;48110;47.532;19.078;2023-06-10T11:57:19;5.10;;;4.60;;
62123;SDS011;48110;47.532;19.078;2023-06-10T12:00:24;8.02;;;4.40;;
62123;SDS011;48110;47.532;19.078;2023-06-10T12:03:36;5.25;;;4.00;;
62123;SDS011;48110;47.532;19.078;2023-06-10T12:06:46;6.40;;;4.10;;
62123;SDS011;48110;47.532;19.078;2023-06-10T12:09:59;3.87;;;3.30;;
62123;SDS011;48110;47.532;19.078;2023-06-10T12:13:21;3.10;;;2.80;;
62123;SDS011;48110;47.532;19.078;2023-06-10T12:16:28;2.85;;;2.60;;
62123;SDS011;48110;47.532;19.078;2023-06-10T12:19:37;5.10;;;1.80;;
62123;SDS011;48110;47.532;19.078;2023-06-10T12:22:44;2.25;;;1.95;;
62123;SDS011;48110;47.532;19.078;2023-06-10T12:25:52;3.72;;;1.70;;
62123;SDS011;48110;47.532;19.078;2023-06-10T12:28:58;1.67;;;1.50;;
62123;SDS011;48110;47.532;19.078;2023-06-10T12:32:03;2.22;;;1.58;;
62123;SDS011;48110;47.532;19.078;2023-06-10T12:35:12;2.62;;;1.65;;
62123;SDS011;48110;47.532;19.078;2023-06-10T12:38:21;1.95;;;1.70;;
62123;SDS011;48110;47.532;19.078;2023-06-10T12:41:28;4.77;;;1.53;;
62123;SDS011;48110;47.532;19.078;2023-06-10T12:44:33;5.43;;;1.35;;
62123;SDS011;48110;47.532;19.078;2023-06-10T12:47:40;3.72;;;1.65;;
62123;SDS011;48110;47.532;19.078;2023-06-10T12:50:49;2.67;;;1.80;;
62123;SDS011;48110;47.532;19.078;2023-06-10T12:53:56;2.47;;;1.67;;
62123;SDS011;48110;47.532;19.078;2023-06-10T12:57:00;4.50;;;1.87;;
62123;SDS011;48110;47.532;19.078;2023-06-10T13:00:06;2.60;;;1.73;;
62123;SDS011;48110;47.532;19.078;2023-06-10T13:03:12;5.43;;;1.70;;
62123;SDS011;48110;47.532;19.078;2023-06-10T13:06:17;2.20;;;1.80;;
62123;SDS011;48110;47.532;19.078;2023-06-10T13:09:23;2.03;;;1.83;;
62123;SDS011;48110;47.532;19.078;2023-06-10T13:12:28;2.05;;;1.65;;
62123;SDS011;48110;47.532;19.078;2023-06-10T13:15:50;4.97;;;1.70;;
62123;SDS011;48110;47.532;19.078;2023-06-10T13:18:54;2.50;;;2.10;;
62123;SDS011;48110;47.532;19.078;2023-06-10T13:21:59;2.37;;;1.80;;
62123;SDS011;48110;47.532;19.078;2023-06-10T13:25:05;2.17;;;1.80;;
62123;SDS011;48110;47.532;19.078;2023-06-10T13:28:15;11.27;;;2.05;;
62123;SDS011;48110;47.532;19.078;2023-06-10T13:31:20;2.53;;;2.20;;
62123;SDS011;48110;47.532;19.078;2023-06-10T13:34:24;3.35;;;2.17;;
62123;SDS011;48110;47.532;19.078;2023-06-10T13:37:29;4.35;;;2.28;;
62123;SDS011;48110;47.532;19.078;2023-06-10T13:40:33;5.40;;;2.20;;
62123;SDS011;48110;47.532;19.078;2023-06-10T13:43:39;4.43;;;2.15;;
62123;SDS011;48110;47.532;19.078;2023-06-10T13:46:43;3.37;;;2.20;;
62123;SDS011;48110;47.532;19.078;2023-06-10T13:49:52;2.85;;;2.30;;
62123;SDS011;48110;47.532;19.078;2023-06-10T13:52:57;6.03;;;2.30;;
62123;SDS011;48110;47.532;19.078;2023-06-10T13:56:04;5.30;;;2.90;;
62123;SDS011;48110;47.532;19.078;2023-06-10T13:59:07;3.03;;;2.03;;
62123;SDS011;48110;47.532;19.078;2023-06-10T14:02:12;2.65;;;1.80;;
62123;SDS011;48110;47.532;19.078;2023-06-10T14:05:17;2.10;;;1.90;;
62123;SDS011;48110;47.532;19.078;2023-06-10T14:08:21;2.03;;;1.70;;
62123;SDS011;48110;47.532;19.078;2023-06-10T14:11:26;3.60;;;1.60;;
62123;SDS011;48110;47.532;19.078;2023-06-10T14:14:32;4.75;;;3.17;;
62123;SDS011;48110;47.532;19.078;2023-06-10T14:17:37;1.58;;;1.48;;
62123;SDS011;48110;47.532;19.078;2023-06-10T14:20:42;3.10;;;1.65;;
62123;SDS011;48110;47.532;19.078;2023-06-10T14:23:46;3.37;;;1.90;;
62123;SDS011;48110;47.532;19.078;2023-06-10T14:26:52;2.30;;;2.10;;
62123;SDS011;48110;47.532;19.078;2023-06-10T14:29:56;2.83;;;2.50;;
62123;SDS011;48110;47.532;19.078;2023-06-10T14:33:01;2.45;;;2.10;;
62123;SDS011;48110;47.532;19.078;2023-06-10T14:36:06;3.78;;;1.98;;
62123;SDS011;48110;47.532;19.078;2023-06-10T14:39:11;4.35;;;2.05;;
62123;SDS011;48110;47.532;19.078;2023-06-10T14:42:15;4.05;;;2.40;;
62123;SDS011;48110;47.532;19.078;2023-06-10T14:45:19;3.95;;;2.25;;
62123;SDS011;48110;47.532;19.078;2023-06-10T14:48:24;6.32;;;2.12;;
62123;SDS011;48110;47.532;19.078;2023-06-10T14:51:28;5.00;;;2.20;;
62123;SDS011;48110;47.532;19.078;2023-06-10T14:54:37;2.90;;;2.35;;
62123;SDS011;48110;47.532;19.078;2023-06-10T14:57:41;6.65;;;2.12;;
62123;SDS011;48110;47.532;19.078;2023-06-10T15:00:46;2.60;;;2.12;;
62123;SDS011;48110;47.532;19.078;2023-06-10T15:03:51;2.83;;;2.20;;
62123;SDS011;48110;47.532;19.078;2023-06-10T15:06:57;2.28;;;2.03;;
62123;SDS011;48110;47.532;19.078;2023-06-10T15:10:01;6.50;;;2.17;;
62123;SDS011;48110;47.532;19.078;2023-06-10T15:13:07;2.90;;;2.28;;
62123;SDS011;48110;47.532;19.078;2023-06-10T15:16:11;3.00;;;2.30;;
62123;SDS011;48110;47.532;19.078;2023-06-10T15:19:16;5.25;;;2.85;;
62123;SDS011;48110;47.532;19.078;2023-06-10T15:22:20;5.28;;;2.87;;
62123;SDS011;48110;47.532;19.078;2023-06-10T15:25:25;4.85;;;2.40;;
62123;SDS011;48110;47.532;19.078;2023-06-10T15:28:34;4.75;;;2.00;;
62123;SDS011;48110;47.532;19.078;2023-06-10T15:31:39;3.15;;;2.00;;
62123;SDS011;48110;47.532;19.078;2023-06-10T15:34:44;4.37;;;2.15;;
62123;SDS011;48110;47.532;19.078;2023-06-10T15:37:51;3.67;;;2.00;;
62123;SDS011;48110;47.532;19.078;2023-06-10T15:40:55;3.28;;;2.17;;
62123;SDS011;48110;47.532;19.078;2023-06-10T15:44:00;4.05;;;2.42;;
62123;SDS011;48110;47.532;19.078;2023-06-10T15:47:05;4.30;;;2.03;;
62123;SDS011;48110;47.532;19.078;2023-06-10T15:50:10;3.62;;;2.28;;
62123;SDS011;48110;47.532;19.078;2023-06-10T15:53:14;4.18;;;2.03;;
62123;SDS011;48110;47.532;19.078;2023-06-10T15:56:20;4.43;;;2.15;;
62123;SDS011;48110;47.532;19.078;2023-06-10T15:59:24;6.25;;;2.20;;
62123;SDS011;48110;47.532;19.078;2023-06-10T16:02:29;3.97;;;2.50;;
62123;SDS011;48110;47.532;19.078;2023-06-10T16:05:39;2.85;;;2.10;;
62123;SDS011;48110;47.532;19.078;2023-06-10T16:08:43;4.15;;;2.40;;
62123;SDS011;48110;47.532;19.078;2023-06-10T16:11:49;3.62;;;2.42;;
62123;SDS011;48110;47.532;19.078;2023-06-10T16:14:53;3.85;;;2.62;;
62123;SDS011;48110;47.532;19.078;2023-06-10T16:17:57;4.15;;;2.60;;
62123;SDS011;48110;47.532;19.078;2023-06-10T16:21:02;3.42;;;2.47;;
62123;SDS011;48110;47.532;19.078;2023-06-10T16:24:07;4.87;;;2.50;;
62123;SDS011;48110;47.532;19.078;2023-06-10T16:27:12;4.53;;;2.60;;
62123;SDS011;48110;47.532;19.078;2023-06-10T16:30:16;3.78;;;2.33;;
62123;SDS011;48110;47.532;19.078;2023-06-10T16:33:20;6.00;;;2.75;;
62123;SDS011;48110;47.532;19.078;2023-06-10T16:36:25;6.43;;;2.50;;
62123;SDS011;48110;47.532;19.078;2023-06-10T16:39:30;4.75;;;2.45;;
62123;SDS011;48110;47.532;19.078;2023-06-10T16:42:35;10.90;;;3.05;;
62123;SDS011;48110;47.532;19.078;2023-06-10T16:45:43;4.05;;;2.95;;
62123;SDS011;48110;47.532;19.078;2023-06-10T16:48:52;3.30;;;2.90;;
62123;SDS011;48110;47.532;19.078;2023-06-10T16:51:57;5.20;;;2.87;;
62123;SDS011;48110;47.532;19.078;2023-06-10T16:55:04;4.10;;;2.70;;
62123;SDS011;48110;47.532;19.078;2023-06-10T16:58:11;5.40;;;2.83;;
62123;SDS011;48110;47.532;19.078;2023-06-10T17:01:19;6.85;;;2.90;;
62123;SDS011;48110;47.532;19.078;2023-06-10T17:04:28;6.50;;;2.75;;
62123;SDS011;48110;47.532;19.078;2023-06-10T17:07:36;4.28;;;2.85;;
62123;SDS011;48110;47.532;19.078;2023-06-10T17:10:42;3.03;;;2.58;;
62123;SDS011;48110;47.532;19.078;2023-06-10T17:13:48;6.28;;;2.70;;
62123;SDS011;48110;47.532;19.078;2023-06-10T17:16:55;4.30;;;2.60;;
62123;SDS011;48110;47.532;19.078;2023-06-10T17:20:07;5.43;;;3.10;;
62123;SDS011;48110;47.532;19.078;2023-06-10T17:23:17;4.05;;;2.70;;
62123;SDS011;48110;47.532;19.078;2023-06-10T17:26:24;5.18;;;3.12;;
62123;SDS011;48110;47.532;19.078;2023-06-10T17:29:32;7.72;;;3.10;;
62123;SDS011;48110;47.532;19.078;2023-06-10T17:32:39;4.47;;;3.05;;
62123;SDS011;48110;47.532;19.078;2023-06-10T17:35:45;6.05;;;3.42;;
62123;SDS011;48110;47.532;19.078;2023-06-10T17:38:52;5.22;;;3.28;;
62123;SDS011;48110;47.532;19.078;2023-06-10T17:41:59;4.32;;;3.20;;
62123;SDS011;48110;47.532;19.078;2023-06-10T17:45:07;3.67;;;3.22;;
62123;SDS011;48110;47.532;19.078;2023-06-10T17:48:15;4.07;;;3.17;;
62123;SDS011;48110;47.532;19.078;2023-06-10T17:51:20;5.15;;;3.37;;
62123;SDS011;48110;47.532;19.078;2023-06-10T17:54:27;6.85;;;3.72;;
62123;SDS011;48110;47.532;19.078;2023-06-10T17:57:35;5.85;;;3.08;;
62123;SDS011;48110;47.532;19.078;2023-06-10T18:00:41;9.15;;;3.40;;
62123;SDS011;48110;47.532;19.078;2023-06-10T18:03:48;7.65;;;3.35;;
62123;SDS011;48110;47.532;19.078;2023-06-10T18:06:53;6.25;;;3.12;;
62123;SDS011;48110;47.532;19.078;2023-06-10T18:09:59;6.82;;;3.78;;
62123;SDS011;48110;47.532;19.078;2023-06-10T18:13:08;5.55;;;2.92;;
62123;SDS011;48110;47.532;19.078;2023-06-10T18:16:17;4.03;;;3.10;;
62123;SDS011;48110;47.532;19.078;2023-06-10T18:19:26;5.93;;;3.63;;
62123;SDS011;48110;47.532;19.078;2023-06-10T18:22:33;5.10;;;3.47;;
62123;SDS011;48110;47.532;19.078;2023-06-10T18:25:43;5.32;;;3.78;;
62123;SDS011;48110;47.532;19.078;2023-06-10T18:28:51;4.60;;;3.87;;
62123;SDS011;48110;47.532;19.078;2023-06-10T18:32:00;7.55;;;3.75;;